createdAt,value
2022-08-14T00:03:21.021Z,54.00
2022-08-14T00:08:43.596Z,55.00
2022-08-14T00:13:52.864Z,54.60
2022-08-14T00:19:06.253Z,54.40
2022-08-14T00:24:28.554Z,54.80
2022-08-14T00:29:40.472Z,54.80
2022-08-14T00:34:47.261Z,55.00
2022-08-14T00:39:52.150Z,55.20
2022-08-14T00:44:57.498Z,55.30
2022-08-14T00:50:02.452Z,55.50
2022-08-14T00:55:10.132Z,55.50
2022-08-14T01:00:37.456Z,55.80
2022-08-14T01:05:51.771Z,55.90
2022-08-14T01:10:58.702Z,56.10
2022-08-14T01:16:06.768Z,56.30
2022-08-14T01:21:12.778Z,56.40
2022-08-14T01:26:23.544Z,56.50
2022-08-14T01:31:42.511Z,57.00
2022-08-14T01:36:46.175Z,57.10
2022-08-14T01:41:58.251Z,57.10
2022-08-14T01:47:11.612Z,57.10
2022-08-14T01:52:34.515Z,57.50
2022-08-14T01:58:00.995Z,57.70
2022-08-14T02:03:08.517Z,57.70
2022-08-14T02:08:13.179Z,57.80
2022-08-14T02:13:21.168Z,57.90
2022-08-14T02:18:25.856Z,58.00
2022-08-14T02:23:32.583Z,58.20
2022-08-14T02:28:57.649Z,58.20
2022-08-14T02:34:14.756Z,58.50
2022-08-14T02:39:25.887Z,58.60
2022-08-14T02:44:39.462Z,58.80
2022-08-14T02:49:46.505Z,58.90
2022-08-14T02:54:58.487Z,58.90
2022-08-14T03:00:09.985Z,59.00
2022-08-14T03:05:14.303Z,59.20
2022-08-14T03:10:27.904Z,59.10
2022-08-14T03:15:39.936Z,59.10
2022-08-14T03:20:44.497Z,59.10
2022-08-14T03:25:50.288Z,59.10
2022-08-14T03:30:56.158Z,59.10
2022-08-14T03:37:28.807Z,59.20
2022-08-14T03:41:33.276Z,59.20
2022-08-14T03:46:54.850Z,59.40
2022-08-14T03:52:18.025Z,59.50
2022-08-14T03:57:37.115Z,59.70
2022-08-14T04:02:47.159Z,60.00
2022-08-14T04:08:08.739Z,59.80
2022-08-14T04:13:18.215Z,59.90
2022-08-14T04:18:23.388Z,60.00
2022-08-14T04:23:29.840Z,59.90
2022-08-14T04:29:09.078Z,60.20
2022-08-14T04:34:05.391Z,60.40
2022-08-14T04:39:29.052Z,60.30
2022-08-14T04:44:37.320Z,60.40
2022-08-14T04:49:46.690Z,60.40
2022-08-14T04:55:01.349Z,60.80
2022-08-14T05:00:08.011Z,61.20
2022-08-14T05:05:24.961Z,61.50
2022-08-14T05:10:32.341Z,61.80
2022-08-14T05:15:39.411Z,62.00
2022-08-14T05:21:58.223Z,62.30
2022-08-14T05:26:17.265Z,63.40
2022-08-14T05:31:21.358Z,63.90
2022-08-14T05:36:26.996Z,64.10
2022-08-14T05:41:53.345Z,64.20
2022-08-14T05:46:56.784Z,64.50
2022-08-14T05:52:02.476Z,64.70
2022-08-14T05:57:06.639Z,64.60
2022-08-14T06:02:11.397Z,64.90
2022-08-14T06:07:16.785Z,65.10
2022-08-14T06:12:55.141Z,65.20
2022-08-14T06:17:47.239Z,65.00
2022-08-14T06:23:03.986Z,64.90
2022-08-14T06:28:26.956Z,64.70
2022-08-14T06:35:03.240Z,64.70
2022-08-14T06:38:56.634Z,64.70
2022-08-14T06:44:02.606Z,64.70
2022-08-14T06:49:07.447Z,64.70
2022-08-14T06:54:14.987Z,64.60
2022-08-14T06:59:20.184Z,64.70
2022-08-14T07:04:41.085Z,64.70
2022-08-14T07:09:50.989Z,64.60
2022-08-14T07:14:58.626Z,64.60
2022-08-14T07:20:07.184Z,64.30
2022-08-14T07:25:12.994Z,64.10
2022-08-14T07:30:34.078Z,64.40
2022-08-14T07:35:58.031Z,64.50
2022-08-14T07:41:11.974Z,64.60
2022-08-14T07:46:21.145Z,64.30
2022-08-14T07:51:34.010Z,64.40
2022-08-14T07:56:43.981Z,64.40
2022-08-14T08:01:53.403Z,64.50
2022-08-14T08:07:01.827Z,64.80
2022-08-14T08:12:14.290Z,64.20
2022-08-14T08:17:20.389Z,64.10
2022-08-14T08:22:27.349Z,64.10
2022-08-14T08:27:37.451Z,64.10
2022-08-14T08:32:49.017Z,64.00
2022-08-14T08:39:13.968Z,63.90
2022-08-14T08:43:32.461Z,63.80
2022-08-14T08:48:53.923Z,63.80
2022-08-14T08:53:58.773Z,63.70
2022-08-14T08:59:07.737Z,63.80
2022-08-14T09:04:14.710Z,63.80
2022-08-14T09:09:26.125Z,64.50
2022-08-14T09:14:40.050Z,63.60
2022-08-14T09:19:43.903Z,63.50
2022-08-14T09:24:49.596Z,63.30
2022-08-14T09:29:55.064Z,63.30
2022-08-14T09:35:10.671Z,63.20
2022-08-14T09:40:24.069Z,62.90
2022-08-14T09:45:39.917Z,62.50
2022-08-14T09:50:48.123Z,62.50
2022-08-14T09:56:00.479Z,62.50
2022-08-14T10:01:11.164Z,62.20
2022-08-14T10:06:19.441Z,61.70
2022-08-14T10:11:25.620Z,61.40
2022-08-14T10:16:45.445Z,61.10
2022-08-14T10:23:21.874Z,60.60
2022-08-14T10:27:27.173Z,60.30
2022-08-14T10:32:52.235Z,59.90
2022-08-14T10:37:56.398Z,59.70
2022-08-14T10:43:00.249Z,59.40
2022-08-14T10:48:25.051Z,58.70
2022-08-14T10:53:41.456Z,58.50
2022-08-14T10:58:45.890Z,58.00
2022-08-14T11:03:56.462Z,57.70
2022-08-14T11:09:12.236Z,57.20
2022-08-14T11:14:22.993Z,56.70
2022-08-14T11:19:33.553Z,56.60
2022-08-14T11:24:50.713Z,56.20
2022-08-14T11:30:49.894Z,55.70
2022-08-14T11:35:44.073Z,55.60
2022-08-14T11:40:52.600Z,55.30
2022-08-14T11:45:56.542Z,55.10
2022-08-14T11:51:01.676Z,55.10
2022-08-14T11:56:07.070Z,54.80
2022-08-14T12:01:16.322Z,54.50
2022-08-14T12:06:29.592Z,54.60
2022-08-14T12:11:47.275Z,54.40
2022-08-14T12:17:04.196Z,54.50
2022-08-14T12:22:10.017Z,54.40
2022-08-14T12:27:25.124Z,54.30
2022-08-14T12:32:40.444Z,54.10
2022-08-14T12:37:51.768Z,53.70
2022-08-14T12:43:01.446Z,53.40
2022-08-14T12:48:20.637Z,52.80
2022-08-14T12:53:39.933Z,52.60
2022-08-14T12:58:52.577Z,52.30
2022-08-14T13:04:10.216Z,51.80
2022-08-14T13:09:16.604Z,51.70
2022-08-14T13:14:29.845Z,51.70
2022-08-14T13:19:34.593Z,51.70
2022-08-14T13:24:40.782Z,51.50
2022-08-14T13:29:47.091Z,51.40
2022-08-14T13:34:52.772Z,51.20
2022-08-14T13:39:58.199Z,51.10
2022-08-14T13:45:03.688Z,51.00
2022-08-14T13:50:12.808Z,50.90
2022-08-14T13:55:20.723Z,50.90
2022-08-14T14:00:32.429Z,50.70
2022-08-14T14:05:53.022Z,50.50
2022-08-14T14:10:59.662Z,50.30
2022-08-14T14:16:06.210Z,50.40
2022-08-14T14:21:11.049Z,50.20
2022-08-14T14:26:23.251Z,50.10
2022-08-14T14:31:31.175Z,50.10
2022-08-14T14:36:36.606Z,50.20
2022-08-14T14:41:43.973Z,50.00
2022-08-14T14:46:50.686Z,50.00
2022-08-14T14:51:55.982Z,50.10
2022-08-14T14:57:02.377Z,49.90
2022-08-14T15:02:09.360Z,49.70
2022-08-14T15:07:16.237Z,49.70
2022-08-14T15:12:55.345Z,49.50
2022-08-14T15:17:45.370Z,49.50
2022-08-14T15:22:51.760Z,49.30
2022-08-14T15:27:57.110Z,49.20
2022-08-14T15:33:00.999Z,49.20
2022-08-14T15:38:08.071Z,49.20
2022-08-14T15:43:13.343Z,49.10
2022-08-14T15:48:22.293Z,49.00
2022-08-14T15:53:31.500Z,48.80
2022-08-14T15:58:37.815Z,48.60
2022-08-14T16:03:42.528Z,48.60
2022-08-14T16:08:58.761Z,48.40
2022-08-14T16:14:06.743Z,49.20
2022-08-14T16:19:11.410Z,48.60
2022-08-14T16:24:27.597Z,48.30
2022-08-14T16:29:35.725Z,48.20
2022-08-14T16:34:45.685Z,48.10
2022-08-14T16:39:53.823Z,48.20
2022-08-14T16:45:01.054Z,48.20
2022-08-14T16:50:09.417Z,48.10
2022-08-14T16:55:17.772Z,47.90
2022-08-14T17:00:43.834Z,47.90
2022-08-14T17:05:51.068Z,48.00
2022-08-14T17:11:09.989Z,48.00
2022-08-14T17:16:25.079Z,48.30
2022-08-14T17:21:32.444Z,48.60
2022-08-14T17:26:39.706Z,48.70
2022-08-14T17:31:57.739Z,48.80
2022-08-14T17:37:02.628Z,49.00
2022-08-14T17:42:13.214Z,49.10
2022-08-14T17:47:20.549Z,49.30
2022-08-14T17:52:34.838Z,50.30
2022-08-14T17:57:44.567Z,49.70
2022-08-14T18:02:52.172Z,50.00
2022-08-14T18:08:33.008Z,50.20
2022-08-14T18:13:20.442Z,50.60
2022-08-14T18:18:45.676Z,50.70
2022-08-14T18:23:52.108Z,50.90
2022-08-14T18:28:59.644Z,51.00
2022-08-14T18:34:12.199Z,51.20
2022-08-14T18:40:02.018Z,51.60
2022-08-14T18:45:12.632Z,51.70
2022-08-14T18:50:27.480Z,52.20
2022-08-14T18:55:53.928Z,52.30
2022-08-14T19:01:00.635Z,52.60
2022-08-14T19:06:07.004Z,52.80
2022-08-14T19:11:45.141Z,53.20
2022-08-14T19:16:54.385Z,53.00
2022-08-14T19:21:59.553Z,53.00
2022-08-14T19:27:19.711Z,53.40
2022-08-14T19:32:39.750Z,53.60
2022-08-14T19:37:48.440Z,53.70
2022-08-14T19:42:58.302Z,53.90
2022-08-14T19:48:03.864Z,54.00
2022-08-14T19:53:16.431Z,54.20
2022-08-14T19:58:30.098Z,54.50
2022-08-14T20:04:00.289Z,54.90
2022-08-14T20:11:08.193Z,55.00
2022-08-14T20:14:38.010Z,55.30
2022-08-14T20:19:42.952Z,55.50
2022-08-14T20:24:50.022Z,55.60
2022-08-14T20:30:29.620Z,56.50
2022-08-14T20:35:35.568Z,56.10
2022-08-14T20:40:50.348Z,56.20
2022-08-14T20:45:54.929Z,56.40
2022-08-14T20:50:59.534Z,57.40
2022-08-14T20:56:29.076Z,56.90
2022-08-14T21:01:38.543Z,57.00
2022-08-14T21:07:22.993Z,57.20
2022-08-14T21:12:06.550Z,57.30
2022-08-14T21:17:32.280Z,57.30
2022-08-14T21:22:44.988Z,57.30
2022-08-14T21:27:56.601Z,57.60
2022-08-14T21:33:02.741Z,57.90
2022-08-14T21:38:18.336Z,58.00
2022-08-14T21:43:24.638Z,58.00
2022-08-14T21:48:31.960Z,57.90
2022-08-14T21:53:36.682Z,58.00
2022-08-14T21:59:04.487Z,58.10
2022-08-14T22:04:34.506Z,58.20
2022-08-14T22:09:36.680Z,58.30
2022-08-14T22:14:43.208Z,58.50
2022-08-14T22:19:55.195Z,58.50
2022-08-14T22:25:01.275Z,58.60
2022-08-14T22:30:12.190Z,58.60
2022-08-14T22:35:18.057Z,58.80
2022-08-14T22:40:59.586Z,58.80
2022-08-14T22:45:55.441Z,59.00
2022-08-14T22:51:02.193Z,58.90
2022-08-14T22:56:07.256Z,59.00
2022-08-14T23:01:57.342Z,59.30
2022-08-14T23:07:02.457Z,59.40
2022-08-14T23:12:27.608Z,59.60
2022-08-14T23:17:39.081Z,59.70
2022-08-14T23:22:46.427Z,59.30
2022-08-14T23:28:02.557Z,59.30
2022-08-14T23:33:07.619Z,59.30
2022-08-14T23:38:29.793Z,59.20
2022-08-14T23:43:34.766Z,59.30
2022-08-14T23:48:40.451Z,59.00
2022-08-14T23:53:53.118Z,59.10
2022-08-14T23:58:57.488Z,58.60
